1922 NOT_NAMED (1922018S13151)


IBTrACS version v04r00. Visit IBTrACS website for data access.
Please direct all questions to the IBTrACS Q and A forum

Storm track - Intensity - Wind Radii - Intensity Data - Source Data - All data

Summary Information

Storm ID 1922018S13151
Start Jan 17 23Z
End Jan 22 23Z
ATCF IDs
Track status Best track data.

Storm track plot

Map of storm track

Intensity plots

No Intensity information for this storm


Radial wind information

No radial wind information for this storm


Position and Intensity Table

BASIN ISO_TIME_________ NATURE LAT LON
degrees north degrees east
SP 1922-01-17 23:00:00 NR -12.70 150.80
SP 1922-01-18 00:00:00 NR -12.77 150.89
SP 03:00:00 NR -12.98 151.16
SP 06:00:00 NR -13.18 151.41
SP 09:00:00 NR -13.38 151.65
SP 11:00:00 NR -13.50 151.80
SP 12:00:00 NR -13.56 151.87
SP 15:00:00 NR -13.74 152.06
SP 18:00:00 NR -13.91 152.25
SP 21:00:00 NR -14.08 152.45
SP 23:00:00 NR -14.20 152.60
SP 1922-01-19 00:00:00 NR -14.26 152.69
SP 03:00:00 NR -14.45 152.97
SP 06:00:00 NR -14.65 153.28
SP 09:00:00 NR -14.86 153.60
SP 11:00:00 NR -15.00 153.80
SP 12:00:00 NR -15.07 153.89
SP 15:00:00 NR -15.28 154.16
SP 18:00:00 NR -15.49 154.43
SP 21:00:00 NR -15.73 154.70
SP 23:00:00 NR -15.90 154.90
SP 1922-01-20 00:00:00 NR -15.99 155.00
SP 03:00:00 NR -16.29 155.33
SP 06:00:00 NR -16.60 155.68
SP 09:00:00 NR -16.90 156.05
SP 11:00:00 NR -17.10 156.30
SP 12:00:00 NR -17.18 156.42
SP 15:00:00 NR -17.39 156.77
SP 18:00:00 NR -17.61 157.15
SP 21:00:00 NR -17.88 157.58
SP 23:00:00 NR -18.10 157.90
SP 1922-01-21 00:00:00 NR -18.24 158.08
SP 03:00:00 NR -18.72 158.66
SP 06:00:00 NR -19.27 159.29
SP 09:00:00 NR -19.83 159.95
SP 11:00:00 NR -20.20 160.40
SP 12:00:00 NR -20.38 160.63
SP 15:00:00 NR -20.92 161.35
SP 18:00:00 NR -21.42 162.04
SP 21:00:00 NR -21.86 162.66
SP 23:00:00 NR -22.10 163.00
SP 1922-01-22 00:00:00 NR -22.20 163.14
SP 03:00:00 NR -22.44 163.45
SP 06:00:00 NR -22.61 163.66
SP 09:00:00 NR -22.73 163.81
SP 11:00:00 NR -22.80 163.90
SP 12:00:00 NR -22.83 163.95
SP 15:00:00 NR -22.93 164.11
SP 18:00:00 NR -23.03 164.29
SP 21:00:00 NR -23.13 164.47
SP 23:00:00 NR -23.20 164.60

Source Information

Agency Information
USA
TOKYO
CMA
HKO
NEWDELHI
REUNION
BOM
NADI
WELLINGTON
DS824
TD9636 cons_worldwide_trop_cyclone_18710101-19891231-006:Line=1285
TD9635
NEUMANN
MLC

All available IBTrACS Data

SEASON BASIN SUBBASIN ISO_TIME_________ NATURE LAT LON DIST2LAND LANDFALL IFLAG USA SSHS TD9636 LAT TD9636 LON TD9636 STAGE STORM SPEED STORM DIR
Year degrees north degrees east km km 1 degrees north degrees east kts degrees
1922 SP EA 1922-01-17 23:00:00 NR -12.70 150.80 228 228 __________O___ -1 -12.70 150.80 7 7 128
1922 SP EA 1922-01-18 00:00:00 NR -12.77 150.89 241 241 __________P___ -1 -12.77 150.89 7 7 129
1922 SP EA 03:00:00 NR -12.98 151.16 271 271 __________P___ -1 -12.98 151.16 7 7 129
1922 SP EA 06:00:00 NR -13.18 151.41 300 300 __________P___ -1 -13.18 151.41 7 6 129
1922 SP EA 09:00:00 NR -13.38 151.65 331 331 __________P___ -1 -13.38 151.65 7 6 131
1922 SP EA 11:00:00 NR -13.50 151.80 346 346 __________O___ -1 -13.50 151.80 7 6 131
1922 SP EA 12:00:00 NR -13.56 151.87 360 360 __________P___ -1 -13.56 151.87 7 5 133
1922 SP EA 15:00:00 NR -13.74 152.06 379 379 __________P___ -1 -13.74 152.06 7 5 133
1922 SP EA 18:00:00 NR -13.91 152.25 403 403 __________P___ -1 -13.91 152.25 7 5 132
1922 SP EA 21:00:00 NR -14.08 152.45 433 433 __________P___ -1 -14.08 152.45 7 5 131
1922 SP EA 23:00:00 NR -14.20 152.60 452 452 __________O___ -1 -14.20 152.60 7 6 128
1922 SP EA 1922-01-19 00:00:00 NR -14.26 152.69 467 467 __________P___ -1 -14.26 152.69 7 7 125
1922 SP EA 03:00:00 NR -14.45 152.97 503 503 __________P___ -1 -14.45 152.97 7 7 124
1922 SP EA 06:00:00 NR -14.65 153.28 538 538 __________P___ -1 -14.65 153.28 7 7 124
1922 SP EA 09:00:00 NR -14.86 153.60 575 575 __________P___ -1 -14.86 153.60 7 7 125
1922 SP EA 11:00:00 NR -15.00 153.80 596 596 __________O___ -1 -15.00 153.80 7 7 126
1922 SP EA 12:00:00 NR -15.07 153.89 611 611 __________P___ -1 -15.07 153.89 7 7 129
1922 SP EA 15:00:00 NR -15.28 154.16 648 648 __________P___ -1 -15.28 154.16 7 7 130
1922 SP EA 18:00:00 NR -15.49 154.43 679 679 __________P___ -1 -15.49 154.43 7 7 131
1922 SP EA 21:00:00 NR -15.73 154.70 716 716 __________P___ -1 -15.73 154.70 7 7 132
1922 SP EA 23:00:00 NR -15.90 154.90 747 747 __________O___ -1 -15.90 154.90 7 8 132
1922 SP EA 1922-01-20 00:00:00 NR -15.99 155.00 762 762 __________P___ -1 -15.99 155.00 7 9 133
1922 SP EA 03:00:00 NR -16.29 155.33 809 809 __________P___ -1 -16.29 155.33 7 9 133
1922 SP EA 06:00:00 NR -16.60 155.68 833 828 __________P___ -1 -16.60 155.68 7 9 132
1922 SP EA 09:00:00 NR -16.90 156.05 828 826 __________P___ -1 -16.90 156.05 7 9 130
1922 SP EA 11:00:00 NR -17.10 156.30 833 832 __________O___ -1 -17.10 156.30 7 9 128
1922 SP EA 12:00:00 NR -17.18 156.42 832 824 __________P___ -1 -17.18 156.42 7 8 123
1922 SP EA 15:00:00 NR -17.39 156.77 824 785 __________P___ -1 -17.39 156.77 7 8 122
1922 SP EA 18:00:00 NR -17.61 157.15 776 724 __________P___ -1 -17.61 157.15 7 9 122
1922 SP EA 21:00:00 NR -17.88 157.58 724 686 __________P___ -1 -17.88 157.58 7 10 125
1922 SP EA 23:00:00 NR -18.10 157.90 686 672 __________O___ -1 -18.10 157.90 7 12 128
1922 SP EA 1922-01-21 00:00:00 NR -18.24 158.08 662 593 __________P___ -1 -18.24 158.08 7 14 131
1922 SP EA 03:00:00 NR -18.72 158.66 583 506 __________P___ -1 -18.72 158.66 7 15 132
1922 SP EA 06:00:00 NR -19.27 159.29 504 431 __________P___ -1 -19.27 159.29 7 17 132
1922 SP EA 09:00:00 NR -19.83 159.95 421 375 __________P___ -1 -19.83 159.95 7 17 132
1922 SP MM 11:00:00 NR -20.20 160.40 375 354 __________O___ -1 -20.20 160.40 7 17 131
1922 SP MM 12:00:00 NR -20.38 160.63 354 288 __________P___ -1 -20.38 160.63 7 17 129
1922 SP MM 15:00:00 NR -20.92 161.35 288 241 __________P___ -1 -20.92 161.35 7 17 128
1922 SP MM 18:00:00 NR -21.42 162.04 241 217 __________P___ -1 -21.42 162.04 7 15 128
1922 SP MM 21:00:00 NR -21.86 162.66 214 205 __________P___ -1 -21.86 162.66 7 13 127
1922 SP MM 23:00:00 NR -22.10 163.00 205 205 __________O___ -1 -22.10 163.00 7 11 128
1922 SP MM 1922-01-22 00:00:00 NR -22.20 163.14 206 190 __________P___ -1 -22.20 163.14 7 8 130
1922 SP MM 03:00:00 NR -22.44 163.45 190 181 __________P___ -1 -22.44 163.45 7 6 130
1922 SP MM 06:00:00 NR -22.61 163.66 182 182 __________P___ -1 -22.61 163.66 7 4 131
1922 SP MM 09:00:00 NR -22.73 163.81 184 184 __________P___ -1 -22.73 163.81 7 4 130
1922 SP MM 11:00:00 NR -22.80 163.90 187 187 __________O___ -1 -22.80 163.90 7 3 128
1922 SP MM 12:00:00 NR -22.83 163.95 187 181 __________P___ -1 -22.83 163.95 7 4 125
1922 SP MM 15:00:00 NR -22.93 164.11 186 186 __________P___ -1 -22.93 164.11 7 4 123
1922 SP MM 18:00:00 NR -23.03 164.29 187 186 __________P___ -1 -23.03 164.29 7 4 121
1922 SP MM 21:00:00 NR -23.13 164.47 186 186 __________P___ -1 -23.13 164.47 7 4 120
1922 SP MM 23:00:00 NR -23.20 164.60 190 __________O___ -1 -23.20 164.60 7 4 119